Time;durP1;ratioP1;P1;durP2;ratioP2;P2;SDS_P1;SDS_P2;PMS_P1;PMS_P2;Temp;Humidity;BMP_temperature;BMP_pressure;BME280_temperature;BME280_humidity;BME280_pressure;Samples;Min_cycle;Max_cycle;Signal;HPM_P1;HPM_P2
2022/05/03 00:03:29;;;;;;;3.40;1.35;;;;;;;3.75;nan;98589.75;10389590;28;20517;-72
2022/05/03 00:08:34;;;;;;;4.15;1.70;;;;;;;3.77;nan;98594.94;10382558;28;20045;-72
2022/05/03 00:14:09;;;;;;;2.58;1.63;;;;;;;3.73;nan;98586.28;10390752;28;20052;-70
2022/05/03 00:19:11;;;;;;;3.85;1.80;;;;;;;3.72;nan;98589.72;10381646;28;20046;-71
2022/05/03 00:24:13;;;;;;;3.80;1.77;;;;;;;3.63;nan;98548.22;10376202;28;20056;-70
2022/05/03 00:29:16;;;;;;;3.90;1.80;;;;;;;3.62;nan;98551.66;10391746;28;20362;-69
2022/05/03 00:34:19;;;;;;;3.47;1.90;;;;;;;3.64;nan;98558.59;10390264;28;20046;-71
2022/05/03 00:39:20;;;;;;;5.43;2.00;;;;;;;3.60;nan;98553.38;10380489;28;20513;-71
2022/05/03 00:44:58;;;;;;;4.75;2.00;;;;;;;3.58;nan;98540.41;10386754;28;20072;-71
2022/05/03 00:50:33;;;;;;;3.67;1.73;;;;;;;3.54;nan;98523.13;10385099;28;20069;-70
2022/05/03 00:55:41;;;;;;;4.82;2.17;;;;;;;3.45;nan;98500.66;10367728;28;20644;-70
2022/05/03 01:00:58;;;;;;;7.20;2.00;;;;;;;3.43;nan;98489.41;10380507;28;20046;-71
2022/05/03 01:06:15;;;;;;;4.47;1.90;;;;;;;3.28;nan;98438.38;10386413;28;20404;-70
2022/05/03 01:11:33;;;;;;;3.97;1.73;;;;;;;3.14;nan;98375.34;10384074;28;20077;-71
2022/05/03 01:16:46;;;;;;;5.38;1.98;;;;;;;3.02;nan;98342.50;10373878;28;20049;-70
2022/05/03 01:22:05;;;;;;;4.68;2.08;;;;;;;2.91;nan;98298.47;10371679;28;20504;-71
2022/05/03 01:27:42;;;;;;;4.22;1.70;;;;;;;2.82;nan;98272.53;10381752;28;20241;-71
2022/05/03 01:32:45;;;;;;;4.85;1.65;;;;;;;2.85;nan;98276.88;10375085;28;20391;-70
2022/05/03 01:38:16;;;;;;;7.60;2.15;;;;;;;2.91;nan;98298.47;10369241;28;20056;-71
2022/05/03 01:43:43;;;;;;;6.25;2.10;;;;;;;2.85;nan;98288.06;10372975;28;20052;-71
2022/05/03 01:54:44;;;;;;;7.28;2.50;;;;;;;2.58;nan;98185.34;10384580;28;20414;-70
2022/05/03 02:00:04;;;;;;;4.57;1.90;;;;;;;2.61;nan;98199.19;10368007;28;20413;-70
2022/05/03 02:05:28;;;;;;;4.07;1.90;;;;;;;2.63;nan;98210.38;10380314;28;20041;-69
2022/05/03 02:11:11;;;;;;;4.65;2.28;;;;;;;2.65;nan;98216.41;10387640;28;20599;-70
2022/05/03 02:16:14;;;;;;;4.15;2.08;;;;;;;2.65;nan;98213.81;10374405;28;20042;-71
2022/05/03 02:21:21;;;;;;;5.00;2.30;;;;;;;2.53;nan;98179.28;10369547;28;20065;-71
2022/05/03 02:26:31;;;;;;;6.15;2.55;;;;;;;2.51;nan;98168.97;10380200;28;20049;-70
2022/05/03 02:31:41;;;;;;;4.78;2.10;;;;;;;2.50;nan;98164.63;10397166;28;20370;-70
2022/05/03 02:36:48;;;;;;;;;;;;;;;2.44;nan;98141.34;10382201;28;20049;-71
2022/05/03 02:41:50;;;;;;;5.15;2.03;;;;;;;2.30;nan;98103.38;10387220;28;20160;-71
2022/05/03 02:47:09;;;;;;;5.38;2.40;;;;;;;2.24;nan;98076.66;10373818;28;20048;-71
2022/05/03 02:52:19;;;;;;;10.70;2.80;;;;;;;2.14;nan;98042.16;10374104;28;20042;-70
2022/05/03 02:57:30;;;;;;;;;;;;;;;2.14;nan;98033.53;10383933;28;20429;-71
2022/05/03 03:02:35;;;;;;;12.90;2.97;;;;;;;2.16;nan;98048.16;10367400;28;19929;-71
2022/05/03 03:08:13;;;;;;;6.85;3.05;;;;;;;2.17;nan;98055.06;10366731;28;20042;-71
2022/05/03 03:13:23;;;;;;;6.30;3.08;;;;;;;2.16;nan;98052.47;10407403;28;20056;-70
2022/05/03 03:18:26;;;;;;;7.15;3.15;;;;;;;2.12;nan;98041.28;10390005;28;20524;-71
2022/05/03 03:23:29;;;;;;;6.63;3.13;;;;;;;2.02;nan;97998.19;10391264;28;20480;-70
2022/05/03 03:28:33;;;;;;;7.53;2.97;;;;;;;2.03;nan;98007.66;10394460;28;20083;-71
2022/05/03 03:33:38;;;;;;;6.35;3.10;;;;;;;1.97;nan;97982.69;10384983;28;20208;-70
2022/05/03 03:38:45;;;;;;;7.10;3.40;;;;;;;1.95;nan;97981.78;10397983;28;20068;-70
2022/05/03 03:43:47;;;;;;;6.90;2.78;;;;;;;1.86;nan;97943.91;10375734;28;20041;-70
2022/05/03 03:48:49;;;;;;;8.23;3.40;;;;;;;1.76;nan;97913.72;10379811;28;20045;-70
2022/05/03 03:53:52;;;;;;;7.53;3.20;;;;;;;1.66;nan;97881.00;10371294;28;20060;-70
2022/05/03 03:58:54;;;;;;;7.95;3.15;;;;;;;1.64;nan;97872.38;10395018;28;20049;-71
2022/05/03 04:03:56;;;;;;;7.15;3.33;;;;;;;1.73;nan;97908.56;10377950;28;20169;-71
2022/05/03 04:08:58;;;;;;;8.25;3.50;;;;;;;1.78;nan;97930.06;10393075;28;20516;-71
2022/05/03 04:14:00;;;;;;;7.43;3.65;;;;;;;1.80;nan;97940.41;10387683;28;20512;-71
2022/05/03 04:19:02;;;;;;;9.90;4.38;;;;;;;1.79;nan;97939.56;10389657;28;20081;-72
2022/05/03 04:24:04;;;;;;;7.72;3.58;;;;;;;1.88;nan;97967.13;10384631;28;20251;-72
2022/05/03 04:29:06;;;;;;;7.63;4.05;;;;;;;1.99;nan;98014.50;10381089;28;20483;-69
2022/05/03 04:34:10;;;;;;;9.70;4.57;;;;;;;2.13;nan;98079.13;10385666;28;20073;-70
2022/05/03 04:39:15;;;;;;;11.05;4.32;;;;;;;2.29;nan;98126.59;10387862;28;20202;-71
2022/05/03 04:44:19;;;;;;;10.90;4.82;;;;;;;2.41;nan;98173.16;10398242;28;20038;-72
2022/05/03 04:49:21;;;;;;;11.45;4.95;;;;;;;2.57;nan;98231.00;10395355;28;20212;-72
2022/05/03 04:54:24;;;;;;;10.00;5.18;;;;;;;2.77;nan;98318.16;10395666;28;20501;-71
2022/05/03 04:59:28;;;;;;;10.05;5.35;;;;;;;2.96;nan;98395.00;10386518;28;20054;-71
2022/05/03 05:04:30;;;;;;;9.82;4.93;;;;;;;3.21;nan;98485.72;10342891;28;20046;-70
2022/05/03 05:09:31;;;;;;;12.95;6.07;;;;;;;3.45;nan;98577.38;10351129;28;20045;-69
2022/05/03 05:14:33;;;;;;;12.82;5.72;;;;;;;3.65;nan;98663.88;10353758;28;20463;-70
2022/05/03 05:19:35;;;;;;;11.52;5.78;;;;;;;3.89;nan;98753.00;10368950;28;20049;-72
2022/05/03 05:24:39;;;;;;;11.02;5.80;;;;;;;4.13;nan;98853.44;10383573;28;20052;-72
2022/05/03 05:29:42;;;;;;;14.02;6.72;;;;;;;4.41;nan;98963.47;10385040;28;20390;-72
2022/05/03 05:34:44;;;;;;;14.38;6.75;;;;;;;4.65;nan;99057.94;10386364;28;20046;-72
2022/05/03 05:39:48;;;;;;;11.15;6.50;;;;;;;4.94;nan;99169.00;10385738;28;20037;-72
2022/05/03 05:44:53;;;;;;;21.35;6.63;;;;;;;5.19;nan;99273.97;10384479;28;20540;-74
2022/05/03 05:49:55;;;;;;;12.60;6.13;;;;;;;5.39;nan;99344.34;10379572;28;20041;-73
2022/05/03 05:54:57;;;;;;;14.40;6.97;;;;;;;5.63;nan;99449.41;10364424;28;20049;-71
2022/05/03 05:59:59;;;;;;;17.88;7.60;;;;;;;5.79;nan;99508.53;10363976;28;20045;-74
2022/05/03 06:05:01;;;;;;;16.45;7.18;;;;;;;5.89;nan;99547.69;10348033;28;20136;-70
2022/05/03 06:10:04;;;;;;;15.77;8.55;;;;;;;6.16;nan;99659.91;10354997;28;20061;-70
2022/05/03 06:15:06;;;;;;;16.95;9.38;;;;;;;6.59;nan;99822.69;10352235;28;20057;-70
2022/05/03 06:20:09;;;;;;;15.38;9.18;;;;;;;6.86;nan;99942.00;10343293;28;20460;-71
2022/05/03 06:25:10;;;;;;;21.63;11.13;;;;;;;7.20;nan;100072.81;10350602;28;20674;-71
2022/05/03 06:30:12;;;;;;;18.25;10.90;;;;;;;7.68;nan;100262.19;10348032;28;20041;-70
2022/05/03 06:35:14;;;;;;;23.15;12.90;;;;;;;8.24;nan;100490.16;10348290;28;20506;-70
2022/05/03 06:40:16;;;;;;;21.75;13.05;;;;;;;8.61;nan;100642.38;10348246;28;20405;-70
2022/05/03 06:45:18;;;;;;;21.45;12.50;;;;;;;8.89;nan;100752.63;10357800;28;20064;-71
2022/05/03 06:50:19;;;;;;;25.92;14.80;;;;;;;9.20;nan;100880.53;10365334;28;20042;-71
2022/05/03 06:55:21;;;;;;;28.45;15.02;;;;;;;10.26;nan;101310.31;10347747;28;20038;-71
2022/05/03 07:00:23;;;;;;;27.48;14.20;;;;;;;11.20;nan;101704.97;10353565;28;20556;-71
2022/05/03 07:05:25;;;;;;;23.45;14.20;;;;;;;11.76;nan;101920.84;10365270;28;20052;-71
2022/05/03 07:10:26;;;;;;;24.50;13.52;;;;;;;12.69;nan;102312.44;10363844;28;20091;-70
2022/05/03 07:15:30;;;;;;;25.17;13.95;;;;;;;13.14;nan;102497.97;10346661;28;20069;-72
2022/05/03 07:25:53;;;;;;;;;;;;;;;12.23;nan;102135.81;10351031;28;20948;-71
2022/05/03 07:30:56;;;;;;;24.60;13.45;;;;;;;11.80;nan;101962.09;10347471;28;19932;-70
2022/05/03 07:35:57;;;;;;;24.65;12.77;;;;;;;11.54;nan;101853.72;10350949;28;20049;-71
2022/05/03 07:40:59;;;;;;;24.23;12.60;;;;;;;11.20;nan;101720.69;10355777;28;20655;-71
2022/05/03 07:46:01;;;;;;;21.83;11.98;;;;;;;11.22;nan;101740.00;10342612;28;20048;-71
2022/05/03 07:51:03;;;;;;;21.75;11.35;;;;;;;11.12;nan;101700.44;10344272;28;20528;-71
2022/05/03 07:56:05;;;;;;;21.75;9.98;;;;;;;10.93;nan;101630.84;10353871;28;20425;-71
2022/05/03 08:01:06;;;;;;;15.85;8.60;;;;;;;10.71;nan;101548.13;10358403;28;20034;-71
2022/05/03 08:06:08;;;;;;;15.68;8.60;;;;;;;10.69;nan;101535.81;10364262;28;20469;-71
2022/05/03 08:11:10;;;;;;;18.38;7.10;;;;;;;10.74;nan;101563.03;10362110;28;20060;-71
2022/05/03 08:16:22;;;;;;;17.13;7.60;;;;;;;10.76;nan;101567.50;10367146;28;20136;-71
2022/05/03 08:21:24;;;;;;;12.20;5.43;;;;;;;10.70;nan;101545.44;10381453;28;20531;-71
2022/05/03 08:26:26;;;;;;;16.95;5.22;;;;;;;10.59;nan;101509.34;10365133;28;20045;-70
2022/05/03 08:31:28;;;;;;;13.50;4.88;;;;;;;10.50;nan;101466.31;10371656;28;20060;-70
2022/05/03 08:36:30;;;;;;;13.90;5.45;;;;;;;10.70;nan;101556.81;10362005;28;20048;-72
2022/05/03 08:46:47;;;;;;;18.10;4.78;;;;;;;11.21;nan;101759.19;10366107;28;20354;-72
2022/05/03 08:51:50;;;;;;;19.83;5.07;;;;;;;11.16;nan;101737.22;10371688;28;20049;-72
2022/05/03 08:56:52;;;;;;;18.45;5.63;;;;;;;11.16;nan;101745.06;10363207;28;20145;-71
2022/05/03 09:01:54;;;;;;;16.90;5.18;;;;;;;10.96;nan;101675.47;10347491;28;20114;-72
2022/05/03 09:06:56;;;;;;;21.27;5.70;;;;;;;10.91;nan;101656.13;10352370;28;20144;-72
2022/05/03 09:11:57;;;;;;;29.30;6.43;;;;;;;10.77;nan;101592.81;10372995;28;20053;-72
2022/05/03 09:16:59;;;;;;;13.10;4.93;;;;;;;10.89;nan;101651.69;10374433;28;20050;-71
2022/05/03 09:27:25;;;;;;;20.83;4.72;;;;;;;10.94;nan;101671.03;10362433;28;20793;-72
2022/05/03 09:32:34;;;;;;;13.75;5.45;;;;;;;10.86;nan;101644.59;10334491;28;20041;-70
2022/05/03 09:37:42;;;;;;;15.90;4.43;;;;;;;10.87;nan;101654.25;10345896;28;20054;-72
2022/05/03 09:42:55;;;;;;;18.75;4.90;;;;;;;10.73;nan;101601.47;10347381;28;20229;-74
2022/05/03 09:47:59;;;;;;;23.25;6.47;;;;;;;10.69;nan;101585.56;10347038;28;20944;-72
2022/05/03 09:53:08;;;;;;;23.45;6.50;;;;;;;10.55;nan;101519.69;10354918;28;20041;-71
2022/05/03 09:58:11;;;;;;;25.38;6.30;;;;;;;10.58;nan;101541.66;10351563;28;20053;-71
2022/05/03 10:03:13;;;;;;;23.02;6.25;;;;;;;10.66;nan;101570.69;10346405;28;20042;-72
2022/05/03 10:08:17;;;;;;;18.67;4.65;;;;;;;10.76;nan;101618.97;10337962;28;20060;-72
2022/05/03 10:13:19;;;;;;;17.75;4.38;;;;;;;10.77;nan;101619.00;10354075;28;20232;-71
2022/05/03 10:24:10;;;;;;;18.67;4.43;;;;;;;10.96;nan;101713.91;10374044;28;20042;-70
2022/05/03 10:29:13;;;;;;;15.73;4.13;;;;;;;11.03;nan;101739.44;10382823;28;20046;-71
2022/05/03 10:34:56;;;;;;;23.83;4.07;;;;;;;11.14;nan;101779.97;10380297;28;20048;-69
2022/05/03 10:40:00;;;;;;;16.38;4.53;;;;;;;11.08;nan;101758.84;10382453;28;20063;-70
2022/05/03 10:45:14;;;;;;;19.95;4.80;;;;;;;11.35;nan;101864.47;10379571;28;20038;-72
2022/05/03 10:50:16;;;;;;;17.75;4.45;;;;;;;11.58;nan;101959.66;10354066;28;21239;-73
2022/05/03 10:55:18;;;;;;;20.63;5.13;;;;;;;11.73;nan;102015.22;10363959;28;20055;-74
2022/05/03 11:00:57;;;;;;;17.08;4.60;;;;;;;11.74;nan;102024.88;10339676;28;20516;-74
2022/05/03 11:06:38;;;;;;;21.52;5.20;;;;;;;11.93;nan;102115.59;10345456;28;20053;-73
2022/05/03 11:11:43;;;;;;;13.20;3.25;;;;;;;12.14;nan;102198.56;10348472;28;20049;-72
2022/05/03 11:16:51;;;;;;;13.60;3.50;;;;;;;12.58;nan;102380.41;10356037;28;20051;-72
2022/05/03 11:21:53;;;;;;;15.40;3.88;;;;;;;12.55;nan;102375.94;10343884;28;20418;-72
2022/05/03 11:26:58;;;;;;;14.65;4.10;;;;;;;12.72;nan;102447.47;10349002;28;20202;-72
2022/05/03 11:32:01;;;;;;;13.25;3.08;;;;;;;12.87;nan;102504.06;10348176;28;20509;-72
2022/05/03 11:37:04;;;;;;;12.95;3.58;;;;;;;12.98;nan;102543.88;10353511;28;21494;-73
2022/05/03 11:42:09;;;;;;;12.82;2.88;;;;;;;13.25;nan;102664.94;10347733;28;20453;-72
2022/05/03 11:47:11;;;;;;;21.05;3.22;;;;;;;13.66;nan;102834.03;10347774;28;20058;-72
2022/05/03 11:57:35;;;;;;;13.95;3.55;;;;;;;14.45;nan;103166.25;10348986;28;20413;-71
2022/05/03 12:02:41;;;;;;;15.23;3.40;;;;;;;14.56;nan;103217.69;10347662;28;20404;-72
2022/05/03 12:07:45;;;;;;;10.13;3.00;;;;;;;14.39;nan;103143.19;10354686;28;20610;-72
2022/05/03 12:13:03;;;;;;;13.05;3.33;;;;;;;14.20;nan;103057.28;10355554;28;20042;-72
2022/05/03 12:18:19;;;;;;;11.90;3.30;;;;;;;14.07;nan;103008.47;10353613;28;20048;-72
2022/05/03 12:23:36;;;;;;;8.32;2.97;;;;;;;14.42;nan;103145.06;10362059;28;20072;-72
2022/05/03 12:28:40;;;;;;;9.70;2.85;;;;;;;14.80;nan;103298.59;10352086;28;20069;-72
2022/05/03 12:33:56;;;;;;;8.52;2.55;;;;;;;14.79;nan;103302.09;10350373;28;20044;-70
2022/05/03 12:39:21;;;;;;;11.82;2.60;;;;;;;14.99;nan;103388.19;10349896;28;20057;-69
2022/05/03 12:44:24;;;;;;;;;;;;;;;14.92;nan;103351.88;10348838;28;20038;-70
2022/05/03 12:49:28;;;;;;;12.25;2.60;;;;;;;15.11;nan;103424.72;10350064;28;19925;-70
2022/05/03 12:54:30;;;;;;;7.88;2.40;;;;;;;14.90;nan;103340.34;10350656;28;20121;-69
2022/05/03 12:59:32;;;;;;;12.45;2.55;;;;;;;15.05;nan;103399.84;10350705;28;20045;-72
2022/05/03 13:04:34;;;;;;;9.27;2.45;;;;;;;14.95;nan;103357.28;10383488;28;20042;-72
2022/05/03 13:09:36;;;;;;;5.82;1.85;;;;;;;15.25;nan;103483.34;10388620;28;20053;-71
2022/05/03 13:14:38;;;;;;;17.45;3.58;;;;;;;15.34;nan;103507.50;10390435;28;20073;-71
2022/05/03 13:19:39;;;;;;;5.85;1.60;;;;;;;15.14;nan;103422.22;10370276;28;20060;-71
2022/05/03 13:24:41;;;;;;;9.57;2.13;;;;;;;14.94;nan;103338.75;10380358;28;20041;-71
2022/05/03 13:29:43;;;;;;;6.60;1.98;;;;;;;14.66;nan;103217.22;10394055;28;20080;-71
2022/05/03 13:34:44;;;;;;;11.75;2.20;;;;;;;14.52;nan;103155.13;10363507;28;20042;-70
2022/05/03 13:45:07;;;;;;;10.75;2.33;;;;;;;14.98;nan;103338.94;10363795;28;20532;-71
2022/05/03 13:50:10;;;;;;;11.07;2.60;;;;;;;14.94;nan;103321.16;10392965;28;20136;-71
2022/05/03 13:55:11;;;;;;;7.40;2.08;;;;;;;14.89;nan;103298.06;10345385;28;21689;-71
2022/05/03 14:00:14;;;;;;;12.93;2.83;;;;;;;15.05;nan;103363.78;10351546;28;20050;-72
2022/05/03 14:05:16;;;;;;;9.18;2.35;;;;;;;15.01;nan;103336.41;10351498;28;20050;-71
2022/05/03 14:10:17;;;;;;;8.02;2.10;;;;;;;14.84;nan;103263.59;10334815;28;20053;-72
2022/05/03 14:15:19;;;;;;;6.15;1.88;;;;;;;14.84;nan;103271.53;10344069;28;20034;-71
2022/05/03 14:20:20;;;;;;;11.43;2.08;;;;;;;14.84;nan;103255.69;10334124;28;20050;-72
2022/05/03 14:25:25;;;;;;;8.68;1.95;;;;;;;15.01;nan;103333.78;10338246;28;20513;-71
2022/05/03 14:30:27;;;;;;;8.95;2.08;;;;;;;14.91;nan;103286.75;10351564;28;20045;-71
2022/05/03 14:35:29;;;;;;;7.57;2.03;;;;;;;15.06;nan;103349.78;10348087;28;20034;-71
2022/05/03 14:40:30;;;;;;;7.25;1.92;;;;;;;15.02;nan;103322.34;10339510;28;20509;-71
2022/05/03 14:45:32;;;;;;;9.15;1.90;;;;;;;14.84;nan;103234.59;10356686;28;20100;-71
2022/05/03 14:50:34;;;;;;;9.88;2.20;;;;;;;14.85;nan;103249.59;10337576;28;20470;-71
2022/05/03 14:55:37;;;;;;;9.70;2.13;;;;;;;14.93;nan;103279.78;10331303;28;20137;-72
2022/05/03 15:05:43;;;;;;;11.23;2.08;;;;;;;14.85;nan;103236.41;10360089;28;20045;-71
2022/05/03 15:10:44;;;;;;;16.15;3.05;;;;;;;14.54;nan;103116.53;10334073;28;20254;-72
2022/05/03 15:15:46;;;;;;;9.00;1.98;;;;;;;14.33;nan;103017.34;10341564;28;20054;-72
2022/05/03 15:20:49;;;;;;;63.95;7.40;;;;;;;14.22;nan;102959.84;10352805;28;20046;-71
2022/05/03 15:25:52;;;;;;;13.85;3.08;;;;;;;14.19;nan;102947.44;10359843;28;20057;-72
2022/05/03 15:30:59;;;;;;;13.30;2.35;;;;;;;14.16;nan;102939.44;10352322;28;20545;-71
2022/05/03 15:36:01;;;;;;;8.50;1.90;;;;;;;14.11;nan;102909.34;10354635;28;20061;-71
2022/05/03 15:41:04;;;;;;;11.30;2.42;;;;;;;13.92;nan;102828.81;10344622;28;20046;-71
2022/05/03 15:46:07;;;;;;;23.77;3.63;;;;;;;13.69;nan;102741.06;10348480;28;20544;-71
2022/05/03 15:51:09;;;;;;;36.50;4.80;;;;;;;13.82;nan;102788.06;10344689;28;20380;-71
2022/05/03 15:56:11;;;;;;;31.70;3.90;;;;;;;13.86;nan;102797.00;10335341;28;20050;-72
2022/05/03 16:01:12;;;;;;;10.38;2.25;;;;;;;13.92;nan;102820.91;10354339;28;20045;-72
2022/05/03 16:06:15;;;;;;;15.93;2.35;;;;;;;13.90;nan;102818.22;10342849;28;20093;-71
2022/05/03 16:11:17;;;;;;;11.57;2.15;;;;;;;14.41;nan;103017.66;10345186;28;20520;-71
2022/05/03 16:16:19;;;;;;;9.70;2.08;;;;;;;14.26;nan;102954.72;10329533;28;20069;-70
2022/05/03 16:21:20;;;;;;;9.95;2.05;;;;;;;13.81;nan;102766.94;10354909;28;20139;-72
2022/05/03 16:26:23;;;;;;;10.10;1.80;;;;;;;13.50;nan;102640.41;10358287;28;20065;-71
2022/05/03 16:31:25;;;;;;;10.48;2.08;;;;;;;13.55;nan;102662.53;10346810;28;20064;-72
2022/05/03 16:47:08;;;;;;;17.97;5.10;;;;;;;12.75;nan;102325.78;10330594;28;20061;-70
2022/05/03 16:52:12;;;;;;;8.02;2.60;;;;;;;12.48;nan;102213.69;10337567;28;20100;-71
2022/05/03 16:57:14;;;;;;;11.10;2.53;;;;;;;12.35;nan;102156.34;10345352;28;20042;-71
2022/05/03 17:02:19;;;;;;;16.55;3.28;;;;;;;12.08;nan;102043.44;10345160;28;20619;-70
2022/05/03 17:07:21;;;;;;;12.98;2.40;;;;;;;11.58;nan;101833.72;10351226;28;20096;-72
2022/05/03 17:12:22;;;;;;;11.55;2.30;;;;;;;11.47;nan;101791.44;10349619;28;20525;-69
2022/05/03 17:17:24;;;;;;;11.65;2.42;;;;;;;11.43;nan;101776.47;10350442;28;20574;-70
2022/05/03 17:22:26;;;;;;;18.95;4.47;;;;;;;11.40;nan;101761.53;10330487;28;20049;-72
2022/05/03 17:27:28;;;;;;;15.40;2.50;;;;;;;11.36;nan;101749.16;10330958;28;21032;-68
2022/05/03 17:32:30;;;;;;;10.18;3.08;;;;;;;11.13;nan;101655.00;10345482;28;20088;-70
2022/05/03 17:37:31;;;;;;;15.38;2.63;;;;;;;10.92;nan;101568.78;10335878;28;20323;-70
2022/05/03 17:42:33;;;;;;;15.80;2.63;;;;;;;10.81;nan;101511.69;10348273;28;20066;-71
2022/05/03 17:47:35;;;;;;;12.75;2.58;;;;;;;10.77;nan;101502.88;10340232;28;20057;-71
2022/05/03 17:57:57;;;;;;;12.25;2.72;;;;;;;10.56;nan;101411.50;10342019;28;20556;-71
2022/05/03 18:02:58;;;;;;;15.23;2.28;;;;;;;10.48;nan;101392.97;10346669;28;20050;-71
2022/05/03 18:08:00;;;;;;;14.73;2.88;;;;;;;10.31;nan;101310.44;10340833;28;20057;-72
2022/05/03 18:13:02;;;;;;;12.63;2.60;;;;;;;10.18;nan;101268.25;10350073;28;20045;-72
2022/05/03 18:18:03;;;;;;;13.85;2.97;;;;;;;10.08;nan;101224.34;10341677;28;20052;-71
2022/05/03 18:23:06;;;;;;;10.80;2.50;;;;;;;9.96;nan;101177.81;10342055;28;20535;-71
2022/05/03 18:28:08;;;;;;;10.65;2.17;;;;;;;9.71;nan;101085.66;10336777;28;20046;-72
2022/05/03 18:33:10;;;;;;;12.57;2.50;;;;;;;9.53;nan;101004.13;10351380;28;20042;-71
2022/05/03 18:38:11;;;;;;;15.05;2.33;;;;;;;9.34;nan;100930.50;10341560;28;20045;-72
2022/05/03 18:43:14;;;;;;;17.38;2.70;;;;;;;9.30;nan;100906.88;10339328;28;20045;-71
2022/05/03 18:48:16;;;;;;;11.48;2.30;;;;;;;9.16;nan;100856.91;10352436;28;20054;-72
2022/05/03 18:53:17;;;;;;;12.40;2.88;;;;;;;9.06;nan;100813.13;10357303;28;20049;-72
2022/05/03 18:58:20;;;;;;;16.70;2.45;;;;;;;9.00;nan;100799.06;10355260;28;20486;-71
2022/05/03 19:03:22;;;;;;;17.63;2.50;;;;;;;8.90;nan;100755.28;10359153;28;20052;-72
2022/05/03 19:08:23;;;;;;;14.95;3.05;;;;;;;8.79;nan;100709.78;10356948;28;20069;-72
2022/05/03 19:13:27;;;;;;;8.15;2.35;;;;;;;8.64;nan;100655.50;10356185;28;20050;-72
2022/05/03 19:18:29;;;;;;;10.70;2.63;;;;;;;8.53;nan;100608.28;10330297;28;20061;-71
2022/05/03 19:23:31;;;;;;;15.57;4.45;;;;;;;8.39;nan;100557.47;10345179;28;20060;-72
2022/05/03 19:33:57;;;;;;;16.30;4.88;;;;;;;8.07;nan;100424.63;10350947;28;20049;-71
2022/05/03 19:38:59;;;;;;;12.05;3.55;;;;;;;7.93;nan;100370.44;10356135;28;20680;-71
2022/05/03 19:44:01;;;;;;;7.40;2.35;;;;;;;7.80;nan;100326.72;10356343;28;20041;-71
2022/05/03 19:49:02;;;;;;;14.07;3.42;;;;;;;7.67;nan;100275.19;10354522;28;20073;-72
2022/05/03 19:54:04;;;;;;;16.52;2.85;;;;;;;7.54;nan;100224.56;10356170;28;20045;-71
2022/05/03 19:59:08;;;;;;;11.35;2.75;;;;;;;7.38;nan;100159.09;10356782;28;20052;-72
2022/05/03 20:04:10;;;;;;;9.50;2.65;;;;;;;7.24;nan;100111.97;10355318;28;20501;-71
2022/05/03 20:09:15;;;;;;;10.98;2.88;;;;;;;7.13;nan;100066.63;10355944;28;20053;-72
2022/05/03 20:14:18;;;;;;;15.05;2.95;;;;;;;7.03;nan;100020.41;10356437;28;20046;-72
2022/05/03 20:19:20;;;;;;;20.95;4.13;;;;;;;6.80;nan;99942.78;10349164;28;20053;-72
2022/05/03 20:24:21;;;;;;;8.07;2.97;;;;;;;6.73;nan;99909.69;10356860;28;20046;-72
2022/05/03 20:29:23;;;;;;;9.20;3.00;;;;;;;6.60;nan;99863.47;10363838;28;20042;-72
2022/05/03 20:34:25;;;;;;;10.90;3.08;;;;;;;6.42;nan;99794.66;10363577;28;20070;-72
2022/05/03 20:39:26;;;;;;;11.23;3.47;;;;;;;6.34;nan;99760.72;10357179;28;20042;-71
2022/05/03 20:44:28;;;;;;;11.80;3.30;;;;;;;6.16;nan;99688.50;10362815;28;20049;-72
2022/05/03 20:49:30;;;;;;;13.00;3.90;;;;;;;5.97;nan;99616.25;10356408;28;20494;-72
2022/05/03 20:54:32;;;;;;;16.05;3.45;;;;;;;5.75;nan;99534.44;10339604;28;20046;-71
2022/05/03 20:59:35;;;;;;;13.07;3.60;;;;;;;5.63;nan;99491.84;10342371;28;20064;-72
2022/05/03 21:04:37;;;;;;;16.45;5.70;;;;;;;5.42;nan;99414.50;10337603;28;20085;-71
2022/05/03 21:09:39;;;;;;;14.50;3.92;;;;;;;5.35;nan;99385.81;10343420;28;20505;-72
2022/05/03 21:14:40;;;;;;;9.85;3.30;;;;;;;5.27;nan;99354.56;10353607;28;20045;-71
2022/05/03 21:19:45;;;;;;;11.35;3.65;;;;;;;5.16;nan;99315.44;10351023;28;20054;-71
2022/05/03 21:24:46;;;;;;;13.38;4.20;;;;;;;5.01;nan;99260.72;10341506;28;20034;-71
2022/05/03 21:29:49;;;;;;;13.90;3.67;;;;;;;4.90;nan;99221.66;10333101;28;20081;-72
2022/05/03 21:34:51;;;;;;;10.50;3.80;;;;;;;4.84;nan;99193.91;10348630;28;20043;-71
2022/05/03 21:39:53;;;;;;;10.77;3.60;;;;;;;4.73;nan;99154.84;10350219;28;20074;-72
2022/05/03 21:44:55;;;;;;;15.88;4.03;;;;;;;4.66;nan;99123.63;10349952;28;20292;-72
2022/05/03 21:49:58;;;;;;;11.52;3.90;;;;;;;4.52;nan;99082.81;10343452;28;20104;-71
2022/05/03 21:54:59;;;;;;;13.88;4.97;;;;;;;4.41;nan;99041.22;10339854;28;20065;-71
2022/05/03 22:00:03;;;;;;;13.30;3.63;;;;;;;4.35;nan;99011.75;10351769;28;20054;-71
2022/05/03 22:05:07;;;;;;;11.75;4.10;;;;;;;4.26;nan;98981.38;10346355;28;20410;-72
2022/05/03 22:10:08;;;;;;;19.75;5.00;;;;;;;4.18;nan;98941.56;10356661;28;20422;-71
2022/05/03 22:15:10;;;;;;;21.70;4.55;;;;;;;4.26;nan;98978.78;10352663;28;20042;-71
2022/05/03 22:20:12;;;;;;;9.43;4.03;;;;;;;4.33;nan;99005.66;10345108;28;20160;-71
2022/05/03 22:25:13;;;;;;;12.02;4.22;;;;;;;4.35;nan;99015.19;10342831;28;20389;-71
2022/05/03 22:30:15;;;;;;;10.57;4.30;;;;;;;4.42;nan;99042.94;10350352;28;20062;-71
2022/05/03 22:35:18;;;;;;;15.77;3.97;;;;;;;4.52;nan;99087.13;10354594;28;20038;-71
2022/05/03 22:40:20;;;;;;;10.18;3.50;;;;;;;4.67;nan;99139.22;10351889;28;20034;-71
2022/05/03 22:45:21;;;;;;;10.18;3.50;;;;;;;4.81;nan;99203.38;10350878;28;20042;-71
2022/05/03 22:50:23;;;;;;;18.73;4.55;;;;;;;4.89;nan;99227.69;10356246;28;20037;-71
2022/05/03 22:55:26;;;;;;;12.80;3.85;;;;;;;4.94;nan;99246.81;10344617;28;20050;-71
2022/05/03 23:00:28;;;;;;;14.70;3.72;;;;;;;5.01;nan;99274.56;10351491;28;20048;-71
2022/05/03 23:05:30;;;;;;;12.15;3.65;;;;;;;5.06;nan;99298.88;10333647;28;20496;-71
2022/05/03 23:10:32;;;;;;;15.63;3.83;;;;;;;5.12;nan;99324.91;10337684;28;20215;-71
2022/05/03 23:15:34;;;;;;;11.98;3.72;;;;;;;5.16;nan;99341.38;10338075;28;20048;-71
2022/05/03 23:20:36;;;;;;;12.25;3.65;;;;;;;5.17;nan;99343.13;10336527;28;20050;-71
2022/05/03 23:25:38;;;;;;;18.65;3.80;;;;;;;5.22;nan;99369.16;10334835;28;20080;-71
2022/05/03 23:30:39;;;;;;;14.40;4.35;;;;;;;5.27;nan;99389.16;10349451;28;20464;-71
2022/05/03 23:35:41;;;;;;;18.23;3.88;;;;;;;5.31;nan;99408.22;10356161;28;20084;-71
2022/05/03 23:40:43;;;;;;;11.02;3.22;;;;;;;5.35;nan;99424.75;10355880;28;20136;-71
2022/05/03 23:51:05;;;;;;;13.38;3.78;;;;;;;5.47;nan;99469.94;10355946;28;20041;-71
2022/05/03 23:56:07;;;;;;;14.48;3.95;;;;;;;5.54;nan;99498.59;10355107;28;20050;-71
